Honselersdijk, Netherlands
Current Conditions -  °F | °C
As of 2:25 PM on Thursday 27 Nov 2014 (Local Time) from EHRD Reporting Station
Overcast Overcast  
Wind Chill: 44°   Ceiling: 700
Heat Index: 48°   Visibility: 5mi
Dew Point: 45°   Wind: 9mph
Humidity: 87%   Direction: 100°E
Pressure: 29.68"   Gusts: NA
Location:  52.01°N, 4.22°E
Report Text: EHRD 271325Z AUTO 10008KT 8000 OVC007 09/07 Q1005 NOSIG
Loading
Personal Weather Stations






























Interactive Weather Map New forecast layout! Learn more

10-Day Weather Forecast

Advertisements
Track Severe Weather on mobile